Time;durP1;ratioP1;P1;durP2;ratioP2;P2;SDS_P1;SDS_P2;PMS_P1;PMS_P2;Temp;Humidity;BMP_temperature;BMP_pressure;BME280_temperature;BME280_humidity;BME280_pressure;Samples;Min_cycle;Max_cycle;Signal;HPM_P1;HPM_P2
2022/12/15 00:39:39;;;;;;;108.43;49.43;;;;;;;-1.62;67.04;99004.00;4958481;28;100371;-90
2022/12/15 00:42:06;;;;;;;97.13;46.87;;;;;;;-1.66;66.75;99001.44;4938930;28;97269;-90
2022/12/15 00:44:31;;;;;;;104.83;49.00;;;;;;;-1.63;66.95;99002.31;4957954;28;97175;-90
2022/12/15 00:46:57;;;;;;;102.50;48.80;;;;;;;-1.73;66.95;98992.06;4958990;28;98642;-90
2022/12/15 01:22:25;;;;;;;106.73;49.37;;;;;;;-1.53;66.18;99026.25;4956209;28;101910;-91
2022/12/15 01:24:51;;;;;;;100.93;48.57;;;;;;;-1.52;66.50;99033.09;4974047;28;96872;-90
2022/12/15 01:27:17;;;;;;;97.73;47.67;;;;;;;-1.50;66.06;99033.09;4941147;28;97266;-90
2022/12/15 01:29:42;;;;;;;91.57;45.83;;;;;;;-1.59;66.20;99031.44;4939124;28;101521;-89
2022/12/15 01:32:08;;;;;;;98.10;49.23;;;;;;;-1.54;66.78;99039.13;4971018;28;97315;-89
2022/12/15 01:34:33;;;;;;;92.73;46.80;;;;;;;-1.71;66.33;99016.06;4958480;28;96935;-90
2022/12/15 01:36:59;;;;;;;102.37;45.37;;;;;;;-1.58;66.26;99033.13;4936970;28;97051;-90
2022/12/15 01:40:43;;;;;;;90.87;44.77;;;;;;;-1.50;66.48;99040.81;4965239;28;99662;-90
2022/12/15 01:42:12;;;;;;;96.40;45.77;;;;;;;-1.52;66.07;99039.97;4961373;28;100144;-90
2022/12/15 01:44:37;;;;;;;91.90;45.03;;;;;;;-1.45;66.34;99051.97;4936426;28;97308;-90
2022/12/15 01:47:04;;;;;;;97.50;46.63;;;;;;;-1.49;66.08;99057.97;4985695;28;96760;-90
2022/12/15 01:49:30;;;;;;;95.53;45.97;;;;;;;-1.46;66.44;99065.66;4953818;28;99960;-90
2022/12/15 01:51:59;;;;;;;91.43;45.30;;;;;;;-1.51;66.24;99059.69;4955644;28;100029;-89
2022/12/15 01:54:32;;;;;;;88.73;44.60;;;;;;;-1.45;66.14;99069.97;4952460;28;97126;-89
2022/12/15 01:57:08;;;;;;;94.43;45.00;;;;;;;-1.49;66.33;99066.53;4956403;28;98061;-90
2022/12/15 01:59:38;;;;;;;89.63;46.37;;;;;;;-1.45;65.88;99070.81;4956828;28;101332;-90
2022/12/15 02:02:04;;;;;;;95.07;45.03;;;;;;;-1.44;66.44;99063.94;4954790;28;102016;-87
2022/12/15 02:04:30;;;;;;;92.30;43.83;;;;;;;-1.49;66.18;99070.84;4939093;28;96865;-90
2022/12/15 02:06:56;;;;;;;85.70;43.53;;;;;;;-1.57;66.63;99059.72;4956520;28;96825;-89
2022/12/15 02:09:23;;;;;;;87.70;44.17;;;;;;;-1.46;66.68;99083.69;4982952;28;100210;-88
2022/12/15 02:12:00;;;;;;;83.70;42.20;;;;;;;-1.46;66.64;99081.97;4974042;28;101364;-88
2022/12/15 02:14:43;;;;;;;87.33;44.20;;;;;;;-1.39;66.22;99101.69;4957859;28;96778;-90
2022/12/15 02:17:41;;;;;;;89.27;43.97;;;;;;;-1.38;66.50;99100.81;4980872;28;96647;-89
2022/12/15 02:20:13;;;;;;;86.23;42.57;;;;;;;-1.38;66.61;99100.81;4955317;28;101473;-88
2022/12/15 02:23:06;;;;;;;80.78;43.13;;;;;;;-1.37;66.14;99099.97;4972458;28;100167;-90
2022/12/15 02:25:59;;;;;;;83.77;43.70;;;;;;;-1.34;66.45;99098.22;4964000;28;96770;-90
2022/12/15 02:28:36;;;;;;;84.10;40.20;;;;;;;-1.35;66.05;99099.09;4963107;28;96994;-89
2022/12/15 02:34:10;;;;;;;86.15;40.25;;;;;;;-1.33;66.54;99110.25;4966669;28;98395;-89
2022/12/15 02:36:38;;;;;;;81.00;39.73;;;;;;;-1.30;66.15;99108.50;4955253;28;97224;-90
2022/12/15 02:39:04;;;;;;;74.43;39.87;;;;;;;-1.31;66.19;99109.38;4955487;28;97360;-88
2022/12/15 02:41:34;;;;;;;75.60;38.60;;;;;;;-1.29;66.11;99117.06;4951114;28;101739;-90
2022/12/15 02:44:04;;;;;;;80.03;39.73;;;;;;;-1.38;66.15;99107.69;4935926;28;100920;-90
2022/12/15 02:46:53;;;;;;;79.13;38.80;;;;;;;-1.32;65.88;99111.94;4964703;28;96721;-90
2022/12/15 02:49:24;;;;;;;77.23;40.97;;;;;;;-1.28;66.14;99134.22;4946904;28;97032;-89
2022/12/15 02:52:32;;;;;;;78.38;40.50;;;;;;;-1.29;65.94;99127.38;4954246;28;101937;-90
2022/12/15 02:55:07;;;;;;;73.60;38.93;;;;;;;-1.25;65.96;99137.66;4951072;28;101608;-89
2022/12/15 02:57:45;;;;;;;74.57;38.80;;;;;;;-1.27;65.82;99141.09;4972783;28;97107;-90
2022/12/15 03:00:11;;;;;;;72.80;37.70;;;;;;;-1.24;66.20;99148.81;4967741;28;97229;-91
2022/12/15 03:02:41;;;;;;;78.03;38.37;;;;;;;-1.23;65.66;99153.94;4970948;28;98339;-90
2022/12/15 03:05:07;;;;;;;74.07;36.23;;;;;;;-1.24;65.41;99149.66;4953201;28;101034;-87
2022/12/15 03:07:33;;;;;;;77.60;36.57;;;;;;;-1.23;66.06;99160.81;4955081;28;96778;-89
2022/12/15 03:10:00;;;;;;;72.93;36.23;;;;;;;-1.24;65.45;99165.13;4955356;28;98311;-89
2022/12/15 03:12:26;;;;;;;74.33;37.60;;;;;;;-1.20;65.85;99160.81;4952397;28;101710;-90
2022/12/15 03:14:52;;;;;;;73.33;37.67;;;;;;;-1.30;65.73;99151.44;4954327;28;98420;-88
2022/12/15 03:17:17;;;;;;;67.37;36.27;;;;;;;-1.22;65.31;99172.81;4953370;28;97222;-89
2022/12/15 03:19:43;;;;;;;74.80;38.20;;;;;;;-1.19;65.56;99176.25;4939981;28;96942;-91
2022/12/15 03:22:08;;;;;;;79.23;37.67;;;;;;;-1.21;65.23;99177.97;4938826;28;101544;-88
2022/12/15 03:24:34;;;;;;;68.50;37.17;;;;;;;-1.32;65.80;99156.56;4955226;28;101688;-88
2022/12/15 03:26:59;;;;;;;70.10;35.53;;;;;;;-1.22;65.21;99176.28;4953540;28;97376;-90
2022/12/15 03:29:25;;;;;;;65.97;33.47;;;;;;;-1.23;65.32;99171.97;4985832;28;96752;-88
2022/12/15 03:31:50;;;;;;;71.77;35.13;;;;;;;-1.24;65.58;99167.69;4955938;28;101470;-89
2022/12/15 03:34:16;;;;;;;68.97;34.37;;;;;;;-1.17;64.91;99168.50;4972656;28;97552;-90
2022/12/15 03:36:42;;;;;;;69.60;35.93;;;;;;;-1.21;65.74;99165.09;4955886;28;96992;-90
2022/12/15 03:39:07;;;;;;;71.60;34.70;;;;;;;-1.16;65.18;99167.66;4972802;28;97286;-87
2022/12/15 03:41:33;;;;;;;72.93;35.30;;;;;;;-1.11;65.18;99177.94;4954290;28;101310;-89
2022/12/15 03:43:59;;;;;;;73.00;36.93;;;;;;;-1.14;65.28;99168.50;4979735;28;98250;-90
2022/12/15 03:46:25;;;;;;;63.37;32.70;;;;;;;-1.11;65.65;99181.34;4955970;28;97040;-90
2022/12/15 03:48:52;;;;;;;64.23;33.60;;;;;;;-1.10;65.17;99182.25;4971531;28;96676;-90
2022/12/15 03:51:18;;;;;;;62.80;32.57;;;;;;;-1.20;65.11;99173.69;4928149;28;101594;-89
2022/12/15 03:53:46;;;;;;;63.20;32.70;;;;;;;-1.38;65.41;99147.16;4953493;28;100938;-90
2022/12/15 03:56:12;;;;;;;61.37;33.97;;;;;;;-1.49;64.92;99128.31;4954639;28;96869;-89
2022/12/15 03:58:37;;;;;;;65.17;34.63;;;;;;;-1.46;65.22;99138.59;4939766;28;96769;-90
2022/12/15 04:01:20;;;;;;;63.63;35.00;;;;;;;-1.14;65.32;99197.69;4943118;28;99983;-90
2022/12/15 04:03:46;;;;;;;62.33;34.70;;;;;;;-1.07;65.37;99200.25;4974112;28;101449;-90
2022/12/15 04:06:11;;;;;;;60.20;32.47;;;;;;;-1.04;65.32;99207.97;4956876;28;96718;-90
2022/12/15 04:08:37;;;;;;;59.23;30.53;;;;;;;-1.06;65.22;99209.69;4957735;28;97563;-90
2022/12/15 04:11:03;;;;;;;54.27;30.17;;;;;;;-1.04;65.38;99216.53;4960255;28;99877;-89
2022/12/15 04:13:28;;;;;;;55.77;29.00;;;;;;;-1.01;64.99;99215.69;4957556;28;100607;-90
2022/12/15 04:15:54;;;;;;;61.00;30.27;;;;;;;-1.03;65.07;99210.50;4984541;28;97162;-90
2022/12/15 04:18:20;;;;;;;52.27;27.70;;;;;;;-1.02;65.13;99214.81;4939807;28;96802;-89
2022/12/15 04:20:46;;;;;;;51.07;29.10;;;;;;;-0.98;65.44;99216.50;4939118;28;98767;-90
2022/12/15 04:23:12;;;;;;;54.57;29.50;;;;;;;-0.97;65.43;99230.25;4967383;28;101626;-89
2022/12/15 05:31:50;;;;;;;51.07;26.60;;;;;;;-0.73;65.84;99296.25;4959844;28;97328;-90
2022/12/15 05:34:21;;;;;;;49.57;24.77;;;;;;;-0.88;65.86;99271.41;4959612;28;96675;-90
2022/12/15 05:36:48;;;;;;;46.60;25.83;;;;;;;-0.71;66.25;99316.00;4957702;28;98445;-88
2022/12/15 05:39:13;;;;;;;52.60;26.10;;;;;;;-0.71;65.85;99310.00;4957182;28;100659;-88
2022/12/15 05:41:39;;;;;;;49.30;24.93;;;;;;;-0.72;66.31;99314.31;4954473;28;96798;-89
2022/12/15 05:44:04;;;;;;;46.73;25.00;;;;;;;-0.71;66.02;99321.16;4955355;28;96674;-90
2022/12/15 05:46:30;;;;;;;48.63;25.43;;;;;;;-0.70;66.11;99317.75;4947137;28;101114;-89
2022/12/15 05:48:55;;;;;;;46.10;24.23;;;;;;;-0.66;66.02;99334.03;4953457;28;100624;-89
2022/12/15 05:51:21;;;;;;;43.03;23.77;;;;;;;-0.71;65.97;99325.47;4979264;28;97665;-89
2022/12/15 05:53:47;;;;;;;45.87;24.53;;;;;;;-0.96;66.08;99283.47;4964828;28;96858;-89
2022/12/15 05:56:13;;;;;;;45.23;24.23;;;;;;;-0.70;65.83;99329.75;4956785;28;98923;-86
2022/12/15 05:58:40;;;;;;;43.37;23.90;;;;;;;-0.65;66.08;99338.31;4956945;28;100247;-93
2022/12/15 06:01:09;;;;;;;38.57;22.00;;;;;;;-0.63;66.00;99346.06;4957218;28;96888;-96
2022/12/15 06:03:35;;;;;;;42.13;22.40;;;;;;;-0.64;66.33;99347.78;4958122;28;96759;-96
2022/12/15 06:06:03;;;;;;;41.57;22.90;;;;;;;-0.91;65.84;99310.94;4940766;28;100663;-94
2022/12/15 06:08:49;;;;;;;;;;;;;;;;;;;;;
2022/12/15 06:11:27;;;;;;;42.93;22.60;;;;;;;-0.89;65.98;99322.97;5007769;22;99062;-92
2022/12/15 06:13:54;;;;;;;37.27;21.60;;;;;;;-1.06;65.81;99289.53;4949684;28;96908;-91
2022/12/15 06:16:21;;;;;;;40.10;22.93;;;;;;;-0.84;66.07;99340.13;4919389;28;100890;-92
2022/12/15 06:19:01;;;;;;;42.67;23.47;;;;;;;-0.94;65.87;99333.28;4958615;28;97994;-90
2022/12/15 06:21:34;;;;;;;36.30;20.90;;;;;;;-0.76;65.82;99366.72;4957975;28;97341;-90
2022/12/15 06:24:04;;;;;;;44.37;22.87;;;;;;;-0.71;66.13;99374.44;4937374;28;96624;-89
2022/12/15 06:26:33;;;;;;;38.50;20.30;;;;;;;-0.68;65.63;99389.88;4920002;28;100158;-89
2022/12/15 06:29:10;;;;;;;34.20;19.50;;;;;;;-0.78;65.07;99378.75;4938143;28;100210;-96
2022/12/15 06:31:47;;;;;;;32.33;18.67;;;;;;;-0.94;65.11;99351.31;4939173;28;97032;-94
2022/12/15 06:34:25;;;;;;;33.30;17.65;;;;;;;-0.99;64.64;99356.50;4918406;28;97158;-96
2022/12/15 06:37:01;;;;;;;30.17;16.53;;;;;;;-0.54;64.97;99431.94;4932927;28;126702;-88
2022/12/15 06:39:27;;;;;;;30.60;17.53;;;;;;;-0.51;64.86;99436.25;4940025;28;101188;-89
2022/12/15 06:41:52;;;;;;;26.23;16.13;;;;;;;-0.70;64.41;99397.66;4930391;28;97120;-85
2022/12/15 06:44:21;;;;;;;29.77;16.30;;;;;;;-0.48;64.18;99431.06;4937323;28;97158;-93
2022/12/15 06:46:56;;;;;;;28.63;17.50;;;;;;;-0.87;64.02;99367.59;4937935;28;101005;-93
2022/12/15 06:49:32;;;;;;;29.10;16.17;;;;;;;-0.72;63.88;99385.63;4934726;28;100046;-93
2022/12/15 06:52:08;;;;;;;29.50;16.77;;;;;;;-0.77;63.58;99401.09;4935804;28;96867;-94
2022/12/15 06:54:36;;;;;;;26.43;15.30;;;;;;;-0.87;63.57;99383.06;4932724;28;97713;-93
2022/12/15 06:57:04;;;;;;;28.27;14.67;;;;;;;-0.56;63.46;99435.41;4933319;28;101075;-94
2022/12/15 06:59:47;;;;;;;24.37;15.47;;;;;;;-0.84;63.55;99391.66;4969259;28;101164;-93
2022/12/15 07:02:17;;;;;;;27.57;16.47;;;;;;;-0.68;63.20;99401.06;4934047;28;96804;-92
2022/12/15 07:04:43;;;;;;;27.77;16.20;;;;;;;-0.84;63.27;99380.47;4934928;28;97199;-93
2022/12/15 07:07:17;;;;;;;28.87;16.93;;;;;;;-0.85;63.69;99383.94;4928718;28;100232;-93
2022/12/15 07:09:50;;;;;;;28.67;16.67;;;;;;;-0.87;63.48;99371.06;4937132;28;100145;-93
2022/12/15 07:12:22;;;;;;;29.47;16.80;;;;;;;-0.83;63.31;99388.22;4935704;28;96735;-95
2022/12/15 07:15:05;;;;;;;30.20;16.63;;;;;;;-0.88;63.91;99382.22;4968497;28;97515;-94
2022/12/15 07:17:37;;;;;;;31.37;16.13;;;;;;;-0.58;64.00;99439.69;4934462;28;101229;-93
2022/12/15 07:20:04;;;;;;;27.80;16.33;;;;;;;-0.81;63.16;99398.53;4935593;28;100845;-92
2022/12/15 07:22:32;;;;;;;28.47;16.67;;;;;;;-0.76;63.04;99410.53;4917716;28;96882;-93
2022/12/15 07:25:10;;;;;;;;;;;;;;;;;;;;;
2022/12/15 07:27:41;;;;;;;26.57;16.03;;;;;;;-0.50;63.61;99448.25;4936534;28;100425;-92
2022/12/15 07:30:07;;;;;;;28.27;16.40;;;;;;;-0.53;63.61;99459.44;4927223;28;100279;-92
2022/12/15 07:32:45;;;;;;;;;;;;;;;;;;;;;
2022/12/15 07:35:13;;;;;;;29.40;18.33;;;;;;;-0.48;63.41;99473.19;4938126;28;96767;-87
2022/12/15 07:37:40;;;;;;;33.93;19.37;;;;;;;-0.33;63.61;99500.66;4953904;28;98286;-88
2022/12/15 07:40:06;;;;;;;32.87;18.27;;;;;;;-0.58;63.93;99450.00;4939276;28;101457;-88
2022/12/15 07:42:32;;;;;;;31.53;17.93;;;;;;;-0.55;63.78;99462.91;4942298;28;97269;-88
2022/12/15 07:44:57;;;;;;;33.20;18.03;;;;;;;-0.53;63.73;99467.19;4918048;28;96985;-92
2022/12/15 07:47:23;;;;;;;29.07;17.57;;;;;;;-0.21;63.66;99522.97;4953765;28;99931;-87
2022/12/15 07:49:49;;;;;;;29.77;18.07;;;;;;;-0.21;63.41;99515.22;4922426;28;101054;-88
2022/12/15 07:52:15;;;;;;;30.57;18.27;;;;;;;-0.20;63.38;99500.59;4952438;28;97351;-84
2022/12/15 07:54:40;;;;;;;35.90;19.53;;;;;;;-0.27;63.38;99500.63;4949053;28;96859;-85
2022/12/15 07:57:06;;;;;;;33.00;18.37;;;;;;;-0.19;62.76;99510.94;4938030;28;101874;-94
2022/12/15 07:59:35;;;;;;;31.37;17.83;;;;;;;-0.22;62.82;99518.69;4923506;28;99988;-91
2022/12/15 08:02:03;;;;;;;32.77;17.47;;;;;;;-0.19;63.25;99526.41;4923385;28;96842;-88
2022/12/15 08:04:29;;;;;;;32.60;18.40;;;;;;;-0.13;63.14;99547.03;4938580;28;96897;-89
2022/12/15 08:06:55;;;;;;;33.70;19.37;;;;;;;-0.11;62.91;99540.16;4939876;28;101575;-86
2022/12/15 08:09:33;;;;;;;31.87;18.40;;;;;;;-0.54;62.76;99475.78;4969113;22;101477;-96
2022/12/15 08:12:09;;;;;;;30.50;17.73;;;;;;;-0.61;62.79;99465.47;4930210;28;96742;-95
2022/12/15 08:14:37;;;;;;;32.10;19.27;;;;;;;-0.47;62.76;99490.41;4949620;28;96889;-94
2022/12/15 08:17:03;;;;;;;33.57;18.90;;;;;;;-0.23;62.88;99529.88;4934236;28;101132;-93
2022/12/15 08:19:29;;;;;;;31.50;18.37;;;;;;;-0.43;62.99;99474.91;4953620;28;99711;-91
2022/12/15 08:21:59;;;;;;;32.43;18.57;;;;;;;-0.18;62.33;99519.53;4962663;28;96564;-91
2022/12/15 08:24:25;;;;;;;31.40;18.73;;;;;;;0.00;62.66;99547.84;4925693;28;96806;-85
2022/12/15 08:26:51;;;;;;;29.83;18.67;;;;;;;0.07;62.37;99557.28;4920201;28;101563;-85
2022/12/15 08:29:17;;;;;;;34.40;20.83;;;;;;;0.05;61.94;99558.16;4950648;28;97439;-88
2022/12/15 08:31:42;;;;;;;36.17;20.80;;;;;;;-0.01;62.30;99559.88;4953463;28;96840;-85
2022/12/15 08:34:09;;;;;;;34.03;20.73;;;;;;;-0.17;62.30;99527.28;4922018;28;97097;-86
2022/12/15 08:36:34;;;;;;;34.30;21.33;;;;;;;-0.14;62.40;99526.41;4935807;28;98452;-85
2022/12/15 08:39:00;;;;;;;32.23;18.37;;;;;;;-0.07;62.48;99543.56;4919146;28;100702;-88
2022/12/15 08:41:28;;;;;;;34.83;20.97;;;;;;;0.13;61.99;99572.75;4918531;28;96900;-89
2022/12/15 08:43:55;;;;;;;36.00;19.67;;;;;;;-0.04;61.97;99546.13;4934635;28;96946;-87
2022/12/15 08:46:23;;;;;;;37.27;20.63;;;;;;;-0.01;61.93;99553.88;4938533;28;101686;-87
2022/12/15 08:48:49;;;;;;;36.17;19.37;;;;;;;0.04;61.79;99554.72;4920841;28;100244;-87
2022/12/15 08:51:16;;;;;;;33.03;19.23;;;;;;;0.13;61.69;99566.72;4921607;28;97183;-88
2022/12/15 08:53:41;;;;;;;34.87;20.23;;;;;;;0.29;61.48;99580.41;4919884;28;96826;-88
2022/12/15 08:56:10;;;;;;;32.67;18.23;;;;;;;0.25;61.36;99566.66;4917983;28;101262;-88
2022/12/15 08:58:36;;;;;;;37.57;20.60;;;;;;;0.04;61.50;99516.00;4921983;28;100851;-88
2022/12/15 09:01:05;;;;;;;32.40;19.77;;;;;;;0.48;60.93;99565.72;4918842;28;98807;-85
2022/12/15 09:03:31;;;;;;;31.13;18.37;;;;;;;0.51;60.74;99565.69;4921994;28;96920;-88
2022/12/15 09:06:01;;;;;;;31.63;18.73;;;;;;;0.66;60.77;99586.28;4936132;28;101993;-88
2022/12/15 09:08:29;;;;;;;33.57;18.77;;;;;;;0.73;60.95;99587.97;4934659;28;98171;-88
2022/12/15 09:10:56;;;;;;;28.97;17.67;;;;;;;0.81;60.39;99593.06;4929021;28;98039;-88
2022/12/15 09:13:22;;;;;;;27.67;16.73;;;;;;;0.78;59.98;99577.59;4942540;28;97347;-88
2022/12/15 09:15:57;;;;;;;29.57;17.00;;;;;;;0.94;59.63;99591.28;4919113;28;100110;-90
2022/12/15 09:18:23;;;;;;;27.13;15.37;;;;;;;1.13;59.43;99596.31;4938011;28;98304;-89
2022/12/15 09:20:49;;;;;;;27.70;17.47;;;;;;;1.45;58.81;99592.59;4926355;28;97802;-88
2022/12/15 09:23:14;;;;;;;28.43;16.87;;;;;;;1.71;58.33;99601.84;4944906;28;97086;-88
2022/12/15 09:25:40;;;;;;;28.60;16.47;;;;;;;1.96;58.06;99599.91;4961726;28;97698;-88
2022/12/15 09:28:05;;;;;;;28.53;16.73;;;;;;;2.14;57.05;99611.78;4943328;28;100063;-88
2022/12/15 09:30:31;;;;;;;28.57;16.50;;;;;;;2.37;56.69;99614.09;4940657;28;97261;-88
2022/12/15 09:32:56;;;;;;;27.40;16.50;;;;;;;2.36;56.39;99571.81;4920635;28;97191;-88
2022/12/15 09:35:22;;;;;;;26.60;16.00;;;;;;;2.65;55.50;99584.38;4935981;28;98451;-89
2022/12/15 09:37:48;;;;;;;37.10;21.47;;;;;;;2.83;54.88;99603.16;4939152;28;100970;-89
2022/12/15 09:40:14;;;;;;;35.37;21.73;;;;;;;2.96;54.70;99609.88;4945325;28;96766;-88
2022/12/15 09:42:39;;;;;;;28.00;17.73;;;;;;;3.11;54.17;99596.69;4940467;28;96834;-88
2022/12/15 09:45:17;;;;;;;25.37;16.60;;;;;;;3.26;54.32;99597.31;4936467;28;100071;-91
2022/12/15 09:47:58;;;;;;;26.30;15.73;;;;;;;2.81;54.06;99558.25;4950439;28;100438;-93
2022/12/15 09:50:31;;;;;;;26.47;15.10;;;;;;;2.38;53.59;99525.16;4939696;28;97266;-93
2022/12/15 09:53:02;;;;;;;25.37;15.07;;;;;;;2.27;53.88;99543.44;4939427;28;96903;-92
2022/12/15 09:55:32;;;;;;;24.97;15.33;;;;;;;2.28;53.73;99565.88;4927803;28;98884;-92
2022/12/15 09:58:09;;;;;;;26.77;16.47;;;;;;;2.08;53.94;99541.94;4924950;28;101013;-94
2022/12/15 10:00:54;;;;;;;31.77;15.83;;;;;;;1.95;53.70;99542.09;4934146;28;97021;-89
2022/12/15 10:03:48;;;;;;;23.20;15.10;;;;;;;2.36;54.23;99605.47;4925101;28;96744;-90
2022/12/15 10:06:25;;;;;;;26.57;15.80;;;;;;;2.32;54.17;99603.78;4915092;28;100944;-87
2022/12/15 10:08:50;;;;;;;31.00;15.90;;;;;;;2.36;54.14;99602.91;4929774;28;99853;-83
2022/12/15 10:11:22;;;;;;;29.10;16.60;;;;;;;2.35;54.29;99577.84;4952210;28;96915;-88
2022/12/15 10:14:10;;;;;;;28.45;16.48;;;;;;;2.69;53.98;99601.59;4962402;28;96794;-86
2022/12/15 10:16:52;;;;;;;25.83;16.10;;;;;;;2.70;53.63;99582.56;4931769;28;101457;-90
2022/12/15 10:19:30;;;;;;;28.90;17.52;;;;;;;2.82;53.56;99581.56;4961643;28;101158;-87
2022/12/15 10:21:56;;;;;;;28.40;16.50;;;;;;;3.03;53.55;99610.66;4955446;28;97064;-88
2022/12/15 10:24:22;;;;;;;27.50;17.50;;;;;;;2.90;53.54;99565.88;4954879;28;97544;-84
2022/12/15 10:26:55;;;;;;;28.27;17.33;;;;;;;3.15;53.34;99606.13;4921865;28;100414;-84
2022/12/15 10:29:45;;;;;;;25.67;15.63;;;;;;;3.10;53.04;99594.97;4946733;28;100220;-85
2022/12/15 10:32:21;;;;;;;25.47;16.77;;;;;;;3.29;52.46;99621.50;4936220;28;97145;-87
2022/12/15 10:34:47;;;;;;;25.93;17.30;;;;;;;3.38;52.46;99625.69;4922776;28;97267;-88
2022/12/15 10:37:17;;;;;;;24.83;16.87;;;;;;;3.38;52.92;99629.13;4932850;28;99819;-94
2022/12/15 10:39:44;;;;;;;28.37;17.47;;;;;;;3.20;52.53;99597.41;4933200;28;98047;-93
2022/12/15 10:42:22;;;;;;;28.50;18.03;;;;;;;3.22;52.07;99619.00;4933362;28;96730;-94
2022/12/15 10:44:51;;;;;;;26.60;16.27;;;;;;;2.94;52.68;99589.16;4935645;28;97008;-94
2022/12/15 10:47:18;;;;;;;26.97;16.93;;;;;;;3.01;52.55;99602.03;4922681;28;101723;-88
2022/12/15 10:49:44;;;;;;;24.03;15.70;;;;;;;2.78;52.32;99579.03;4963384;28;101284;-91
2022/12/15 10:52:36;;;;;;;23.10;14.27;;;;;;;2.57;52.51;99556.88;4951158;28;96699;-87
2022/12/15 10:55:30;;;;;;;22.88;15.07;;;;;;;2.93;52.25;99618.53;4943986;28;96843;-92
2022/12/15 10:58:01;;;;;;;22.70;14.63;;;;;;;2.84;52.54;99613.47;4954511;28;97919;-83
2022/12/15 11:00:29;;;;;;;22.77;14.90;;;;;;;2.73;52.57;99615.34;4919843;28;101691;-86
2022/12/15 11:02:54;;;;;;;26.43;15.73;;;;;;;2.70;52.25;99626.63;4954371;28;96824;-86
2022/12/15 11:05:20;;;;;;;31.20;16.07;;;;;;;2.63;52.94;99629.34;4956599;28;96763;-85
2022/12/15 11:07:50;;;;;;;25.90;16.07;;;;;;;2.53;53.07;99610.47;4935500;28;98636;-86
2022/12/15 11:10:22;;;;;;;34.13;17.53;;;;;;;2.71;52.35;99636.13;4935464;28;101335;-86
2022/12/15 11:13:14;;;;;;;23.03;14.93;;;;;;;2.69;52.50;99645.66;4929223;28;96848;-94
2022/12/15 11:15:49;;;;;;;23.95;14.13;;;;;;;2.59;52.70;99638.88;4933958;28;96649;-91
2022/12/15 11:18:15;;;;;;;23.13;15.47;;;;;;;2.66;52.73;99655.22;4932888;28;101254;-91
2022/12/15 11:20:45;;;;;;;22.07;14.80;;;;;;;2.63;52.92;99647.47;4940827;28;101593;-90
2022/12/15 11:23:46;;;;;;;24.67;15.97;;;;;;;2.64;52.66;99646.59;4926999;28;98589;-94
2022/12/15 11:26:35;;;;;;;24.37;14.87;;;;;;;2.72;52.64;99657.72;4959209;28;96784;-94
2022/12/15 11:29:20;;;;;;;25.97;14.63;;;;;;;2.71;52.77;99659.47;4932054;28;100486;-95
2022/12/15 11:31:47;;;;;;;23.60;14.63;;;;;;;2.60;52.50;99647.50;4935731;28;101912;-95
2022/12/15 11:34:19;;;;;;;25.63;14.57;;;;;;;2.68;52.80;99656.91;4940884;28;96825;-95
2022/12/15 11:36:55;;;;;;;;;;;;;;;2.61;52.11;99663.03;4943470;28;96832;-95
2022/12/15 11:39:47;;;;;;;24.37;14.57;;;;;;;2.56;52.48;99664.84;4930428;28;101662;-94
2022/12/15 11:42:51;;;;;;;23.43;14.70;;;;;;;2.58;52.59;99662.22;4956941;28;99830;-95
2022/12/15 11:45:24;;;;;;;22.93;14.63;;;;;;;2.56;52.60;99663.94;4880650;28;97869;-94
2022/12/15 11:48:02;;;;;;;25.73;16.57;;;;;;;2.53;52.57;99670.06;4935089;28;98170;-95
2022/12/15 11:50:56;;;;;;;33.43;18.93;;;;;;;2.43;52.30;99671.88;4947748;28;97663;-93
2022/12/15 11:53:47;;;;;;;30.83;17.20;;;;;;;2.40;52.95;99678.84;4912218;28;101450;-93
2022/12/15 11:56:32;;;;;;;25.57;16.63;;;;;;;2.41;53.57;99680.53;4946209;28;97186;-93
2022/12/15 11:59:35;;;;;;;30.73;17.37;;;;;;;2.38;53.17;99690.94;4927278;28;97096;-95
2022/12/15 12:02:32;;;;;;;28.30;17.93;;;;;;;2.33;53.53;99688.41;4947552;28;101036;-94
2022/12/15 12:05:17;;;;;;;32.03;16.80;;;;;;;2.34;53.44;99690.13;4919510;28;101529;-94
2022/12/15 12:08:01;;;;;;;30.50;18.73;;;;;;;2.13;53.23;99656.69;4939832;28;97304;-95
2022/12/15 12:10:32;;;;;;;32.00;18.50;;;;;;;2.22;53.58;99683.34;4937353;28;96865;-95
2022/12/15 12:13:20;;;;;;;35.42;20.02;;;;;;;2.23;53.48;99685.03;4959434;28;101132;-95
2022/12/15 12:16:17;;;;;;;33.93;19.13;;;;;;;2.17;53.81;99681.66;4947804;28;101791;-96
2022/12/15 12:19:04;;;;;;;31.50;18.03;;;;;;;1.99;53.72;99657.66;4976467;28;96814;-94
2022/12/15 12:21:45;;;;;;;32.13;18.63;;;;;;;2.23;53.77;99689.38;4955204;28;97188;-93
2022/12/15 12:24:19;;;;;;;34.97;20.47;;;;;;;2.07;53.66;99682.63;4919652;28;101362;-88
2022/12/15 12:26:54;;;;;;;38.73;21.80;;;;;;;1.89;54.08;99658.66;4945647;28;101552;-88
2022/12/15 12:29:29;;;;;;;32.83;19.53;;;;;;;2.01;53.98;99676.63;4921302;28;96804;-87
2022/12/15 12:32:03;;;;;;;31.37;19.47;;;;;;;1.99;53.96;99672.34;4940015;28;97233;-88
2022/12/15 12:34:31;;;;;;;29.23;18.60;;;;;;;1.95;54.56;99674.13;4958099;28;98602;-87
2022/12/15 12:37:08;;;;;;;31.03;17.17;;;;;;;1.87;54.06;99639.66;4954956;28;101205;-88
2022/12/15 12:39:34;;;;;;;37.57;19.77;;;;;;;1.98;54.16;99668.06;4934233;28;97787;-87
2022/12/15 12:42:06;;;;;;;32.40;19.30;;;;;;;1.77;54.34;99648.38;4925327;28;97314;-88
2022/12/15 12:44:36;;;;;;;33.80;19.50;;;;;;;1.94;54.61;99667.19;4953873;28;97767;-88
2022/12/15 12:47:23;;;;;;;31.47;18.43;;;;;;;1.92;54.10;99670.66;4919255;28;101630;-88
2022/12/15 12:49:55;;;;;;;41.47;22.63;;;;;;;1.81;54.06;99627.66;4946567;28;96791;-87
2022/12/15 12:52:26;;;;;;;43.95;24.08;;;;;;;1.99;54.64;99670.59;4917579;28;96768;-83
2022/12/15 12:55:10;;;;;;;36.35;20.73;;;;;;;1.99;53.84;99662.00;4949193;28;98556;-82
2022/12/15 12:57:38;;;;;;;32.70;18.80;;;;;;;1.99;54.15;99649.91;4955646;28;101282;-83
2022/12/15 13:00:19;;;;;;;29.93;18.53;;;;;;;1.94;54.06;99638.72;4937137;28;98059;-82
2022/12/15 13:02:56;;;;;;;34.30;19.73;;;;;;;2.07;54.20;99648.97;4953753;28;96868;-83
2022/12/15 13:05:23;;;;;;;32.87;20.10;;;;;;;2.09;54.21;99658.41;4948229;28;101568;-82
2022/12/15 13:08:03;;;;;;;30.63;19.10;;;;;;;2.12;53.95;99653.22;4933762;28;100533;-82
2022/12/15 13:10:30;;;;;;;38.50;20.13;;;;;;;2.15;54.28;99653.22;4939097;28;97193;-82
2022/12/15 13:12:58;;;;;;;36.70;19.10;;;;;;;2.20;54.34;99655.72;4933107;28;96929;-83
2022/12/15 13:15:26;;;;;;;33.30;19.87;;;;;;;2.24;54.20;99658.28;4931219;28;101581;-82
2022/12/15 13:17:57;;;;;;;31.63;18.20;;;;;;;2.13;54.18;99641.16;4938779;28;101585;-82
2022/12/15 13:20:29;;;;;;;33.88;19.77;;;;;;;2.25;54.16;99670.34;4946369;28;96913;-83
2022/12/15 13:22:56;;;;;;;33.88;19.15;;;;;;;2.15;54.25;99645.44;4941277;28;97004;-82
2022/12/15 13:25:35;;;;;;;32.20;19.87;;;;;;;2.28;53.70;99666.88;4966640;28;97916;-82
2022/12/15 13:28:16;;;;;;;36.40;20.23;;;;;;;2.24;54.05;99670.34;4951752;28;101532;-82
2022/12/15 13:31:20;;;;;;;34.17;19.73;;;;;;;2.25;54.19;99667.75;4932811;28;96856;-83
2022/12/15 13:33:48;;;;;;;32.30;20.20;;;;;;;2.21;54.08;99668.69;4930120;28;98639;-82
2022/12/15 13:36:37;;;;;;;33.57;19.87;;;;;;;2.17;54.18;99673.88;4949560;28;97951;-82
2022/12/15 13:39:15;;;;;;;32.83;19.80;;;;;;;2.12;54.01;99675.66;4951016;28;101003;-82
2022/12/15 13:41:45;;;;;;;32.47;19.23;;;;;;;2.14;53.87;99684.28;4945435;28;96753;-83
2022/12/15 13:44:31;;;;;;;35.00;20.70;;;;;;;2.04;53.67;99666.25;4959308;28;96826;-83
2022/12/15 13:47:05;;;;;;;34.83;20.30;;;;;;;1.98;53.67;99666.31;4922731;28;100388;-83
2022/12/15 13:49:34;;;;;;;30.57;18.73;;;;;;;2.09;53.50;99689.50;4916567;28;101061;-83
2022/12/15 13:52:03;;;;;;;41.00;21.17;;;;;;;2.06;53.82;99679.16;4918371;28;96856;-82
2022/12/15 13:54:34;;;;;;;33.40;20.43;;;;;;;1.92;53.47;99670.66;4932888;28;97482;-82
2022/12/15 13:57:04;;;;;;;32.63;19.77;;;;;;;2.02;53.78;99693.03;4913109;28;101430;-82
2022/12/15 13:59:39;;;;;;;36.03;19.43;;;;;;;2.02;53.08;99701.66;4904616;28;101093;-82
2022/12/15 14:02:31;;;;;;;31.60;18.87;;;;;;;2.03;52.01;99713.72;4960006;28;97940;-84
2022/12/15 14:05:11;;;;;;;35.73;21.57;;;;;;;1.95;52.82;99709.47;4934773;28;97178;-82